Time;durP1;ratioP1;P1;durP2;ratioP2;P2;SDS_P1;SDS_P2;PMS_P1;PMS_P2;Temp;Humidity;BMP_temperature;BMP_pressure;BME280_temperature;BME280_humidity;BME280_pressure;Samples;Min_cycle;Max_cycle;Signal;HPM_P1;HPM_P2
2021/07/21 00:01:46;;;;;;;17.23;11.00;;;;;;;;;;5053588;28;20458;-80
2021/07/21 00:04:13;;;;;;;16.03;10.77;;;;;;;;;;5094521;22;20447;-80
2021/07/21 00:06:39;;;;;;;17.47;10.53;;;;;;;;;;5054465;28;20416;-79
2021/07/21 00:09:05;;;;;;;16.80;9.87;;;;;;;;;;5054267;28;20443;-79
2021/07/21 00:14:28;;;;;;;19.93;10.10;;;;;;;;;;5054206;28;20430;-79
2021/07/21 00:17:00;;;;;;;14.77;11.13;;;;;;;;;;5054072;28;20891;-79
2021/07/21 00:22:12;;;;;;;15.97;11.23;;;;;;;;;;5053486;28;20459;-79
2021/07/21 00:24:39;;;;;;;15.23;10.23;;;;;;;;;;5053530;28;20473;-79
2021/07/21 00:27:05;;;;;;;11.83;9.90;;;;;;;;;;5053818;28;20383;-79
2021/07/21 00:29:31;;;;;;;14.60;10.17;;;;;;;;;;5053788;28;20408;-79
2021/07/21 00:31:57;;;;;;;15.77;11.13;;;;;;;;;;5053745;28;20461;-79
2021/07/21 00:34:23;;;;;;;17.87;10.80;;;;;;;;;;5053316;28;20499;-79
2021/07/21 00:36:49;;;;;;;13.33;10.17;;;;;;;;;;5052618;28;20880;-79
2021/07/21 00:39:15;;;;;;;13.40;10.67;;;;;;;;;;5053614;28;20430;-79
2021/07/21 00:41:41;;;;;;;14.77;10.77;;;;;;;;;;5053567;28;20443;-79
2021/07/21 00:44:08;;;;;;;17.20;11.03;;;;;;;;;;5053092;28;20404;-79
2021/07/21 00:46:35;;;;;;;15.97;10.10;;;;;;;;;;5053603;28;20790;-79
2021/07/21 00:49:01;;;;;;;14.27;9.30;;;;;;;;;;5053489;28;20393;-79
2021/07/21 00:51:27;;;;;;;11.73;8.40;;;;;;;;;;5053426;28;20412;-79
2021/07/21 00:53:53;;;;;;;16.40;9.33;;;;;;;;;;5053023;28;20401;-79
2021/07/21 00:56:20;;;;;;;15.93;10.20;;;;;;;;;;5053238;28;20459;-77
2021/07/21 00:58:46;;;;;;;14.00;9.73;;;;;;;;;;5053359;28;20445;-77
2021/07/21 01:01:12;;;;;;;16.80;9.33;;;;;;;;;;5053443;28;20408;-77
2021/07/21 01:03:38;;;;;;;11.57;9.10;;;;;;;;;;5052939;28;20500;-77
2021/07/21 01:06:05;;;;;;;13.20;9.00;;;;;;;;;;5053205;28;20478;-78
2021/07/21 01:08:31;;;;;;;11.33;8.47;;;;;;;;;;5053517;28;20408;-78
2021/07/21 01:11:12;;;;;;;12.90;9.00;;;;;;;;;;5052163;28;20773;-78
2021/07/21 01:13:47;;;;;;;16.80;10.93;;;;;;;;;;5051596;28;20409;-78
2021/07/21 01:16:16;;;;;;;13.77;9.60;;;;;;;;;;5052967;28;20474;-78
2021/07/21 01:18:47;;;;;;;15.07;9.50;;;;;;;;;;5053080;28;20777;-79
2021/07/21 01:21:23;;;;;;;13.30;9.73;;;;;;;;;;5053163;28;20505;-79
2021/07/21 01:23:49;;;;;;;17.20;11.30;;;;;;;;;;5052782;28;20495;-79
2021/07/21 01:26:20;;;;;;;11.77;8.77;;;;;;;;;;5051522;28;20474;-79
2021/07/21 01:28:47;;;;;;;14.10;9.33;;;;;;;;;;5053208;28;20462;-79
2021/07/21 01:31:17;;;;;;;15.10;10.30;;;;;;;;;;5053149;28;20412;-79
2021/07/21 01:33:44;;;;;;;14.33;10.13;;;;;;;;;;5052635;28;20393;-79
2021/07/21 01:36:14;;;;;;;13.80;10.67;;;;;;;;;;5052796;28;20455;-80
2021/07/21 01:38:46;;;;;;;13.47;9.07;;;;;;;;;;5051607;28;20416;-80
2021/07/21 01:41:19;;;;;;;13.63;9.53;;;;;;;;;;5053063;28;20491;-80
2021/07/21 01:43:46;;;;;;;12.87;9.40;;;;;;;;;;5052674;28;20400;-80
2021/07/21 01:46:12;;;;;;;13.60;10.07;;;;;;;;;;5052726;28;20464;-79
2021/07/21 01:48:41;;;;;;;14.93;9.13;;;;;;;;;;5051595;28;20778;-79
2021/07/21 01:51:08;;;;;;;14.10;9.20;;;;;;;;;;5052791;28;20420;-79
2021/07/21 01:53:35;;;;;;;13.93;9.93;;;;;;;;;;5052549;28;20454;-79
2021/07/21 01:56:03;;;;;;;17.27;11.13;;;;;;;;;;5052701;28;20463;-79
2021/07/21 01:58:29;;;;;;;17.23;11.07;;;;;;;;;;5052692;28;20790;-80
2021/07/21 02:00:56;;;;;;;16.67;10.23;;;;;;;;;;5052656;28;20408;-78
2021/07/21 02:03:23;;;;;;;15.20;8.87;;;;;;;;;;5052371;28;20412;-79
2021/07/21 02:05:50;;;;;;;14.73;9.30;;;;;;;;;;5052585;28;20825;-79
2021/07/21 02:08:20;;;;;;;14.40;8.80;;;;;;;;;;5052753;28;20419;-78
2021/07/21 02:10:47;;;;;;;14.40;8.23;;;;;;;;;;5052578;28;20436;-78
2021/07/21 02:13:16;;;;;;;15.87;9.33;;;;;;;;;;5052275;28;20409;-79
2021/07/21 02:15:43;;;;;;;16.53;9.63;;;;;;;;;;5052378;28;20423;-79
2021/07/21 02:18:09;;;;;;;16.50;10.20;;;;;;;;;;5052848;28;20756;-78
2021/07/21 02:20:36;;;;;;;14.70;9.53;;;;;;;;;;5051216;28;20548;-78
2021/07/21 02:23:03;;;;;;;19.37;10.83;;;;;;;;;;5052539;28;20420;-79
2021/07/21 02:25:29;;;;;;;15.50;10.00;;;;;;;;;;5035846;28;20436;-79
2021/07/21 02:27:56;;;;;;;13.73;9.57;;;;;;;;;;5056288;28;20415;-78
2021/07/21 02:30:25;;;;;;;15.70;10.50;;;;;;;;;;5055089;28;20416;-79
2021/07/21 02:32:51;;;;;;;15.53;10.30;;;;;;;;;;5054456;28;20478;-79
2021/07/21 02:35:20;;;;;;;17.60;10.53;;;;;;;;;;5056021;28;20432;-79
2021/07/21 02:37:47;;;;;;;18.90;11.47;;;;;;;;;;5055926;28;20984;-79
2021/07/21 02:40:13;;;;;;;16.70;10.70;;;;;;;;;;5055983;28;20408;-79
2021/07/21 02:42:39;;;;;;;11.07;8.30;;;;;;;;;;5054608;28;20943;-78
2021/07/21 02:45:06;;;;;;;13.07;9.67;;;;;;;;;;5055412;28;20428;-78
2021/07/21 02:47:32;;;;;;;16.07;10.23;;;;;;;;;;5055850;28;20412;-78
2021/07/21 02:49:59;;;;;;;13.43;9.03;;;;;;;;;;5038038;28;20431;-78
2021/07/21 02:52:38;;;;;;;17.27;9.10;;;;;;;;;;5055653;28;20415;-79
2021/07/21 02:55:18;;;;;;;11.20;7.80;;;;;;;;;;5055311;28;20560;-78
2021/07/21 02:57:47;;;;;;;12.80;9.33;;;;;;;;;;5055497;28;20528;-78
2021/07/21 03:00:15;;;;;;;12.90;8.47;;;;;;;;;;5055579;28;20416;-78
2021/07/21 03:02:41;;;;;;;13.40;9.17;;;;;;;;;;5055459;28;20408;-78
2021/07/21 03:05:10;;;;;;;18.73;10.63;;;;;;;;;;5054844;28;20452;-78
2021/07/21 03:07:37;;;;;;;16.73;10.50;;;;;;;;;;5055387;28;20962;-78
2021/07/21 03:10:07;;;;;;;15.73;9.33;;;;;;;;;;5055692;28;20571;-78
2021/07/21 03:12:39;;;;;;;16.60;10.93;;;;;;;;;;5055237;28;20419;-78
2021/07/21 03:15:06;;;;;;;14.57;9.57;;;;;;;;;;5054950;28;20503;-78
2021/07/21 03:17:34;;;;;;;17.87;10.10;;;;;;;;;;5055201;28;20541;-79
2021/07/21 03:20:01;;;;;;;16.93;11.20;;;;;;;;;;5055182;28;20912;-79
2021/07/21 03:22:28;;;;;;;14.50;9.90;;;;;;;;;;5055189;28;20404;-80
2021/07/21 03:24:54;;;;;;;16.10;10.50;;;;;;;;;;5054861;28;20434;-78
2021/07/21 03:27:21;;;;;;;17.30;10.47;;;;;;;;;;5055068;28;20454;-78
2021/07/21 03:29:50;;;;;;;18.43;9.60;;;;;;;;;;5054985;28;20408;-78
2021/07/21 03:32:18;;;;;;;20.63;10.77;;;;;;;;;;5055050;28;20412;-78
2021/07/21 03:34:46;;;;;;;14.63;10.77;;;;;;;;;;5054588;28;20432;-78
2021/07/21 03:37:15;;;;;;;13.83;9.77;;;;;;;;;;5052479;28;20513;-78
2021/07/21 03:39:41;;;;;;;14.70;9.33;;;;;;;;;;5054718;28;20999;-78
2021/07/21 03:42:08;;;;;;;14.03;9.77;;;;;;;;;;5053559;28;20462;-78
2021/07/21 03:44:37;;;;;;;15.13;10.73;;;;;;;;;;5054452;28;20481;-78
2021/07/21 03:47:03;;;;;;;9.13;8.20;;;;;;;;;;5054675;28;20863;-78
2021/07/21 03:49:30;;;;;;;15.67;9.33;;;;;;;;;;5053041;28;20436;-78
2021/07/21 03:52:08;;;;;;;15.77;10.23;;;;;;;;;;5054604;28;20423;-78
2021/07/21 03:54:34;;;;;;;17.63;9.70;;;;;;;;;;5054187;28;20432;-78
2021/07/21 03:57:01;;;;;;;14.00;9.53;;;;;;;;;;5054464;28;20474;-78
2021/07/21 03:59:27;;;;;;;20.03;11.63;;;;;;;;;;5053109;28;20429;-79
2021/07/21 04:01:55;;;;;;;21.73;9.50;;;;;;;;;;5054326;28;20412;-77
2021/07/21 04:04:22;;;;;;;13.80;10.23;;;;;;;;;;5054012;28;20447;-78
2021/07/21 04:06:48;;;;;;;16.27;10.20;;;;;;;;;;5054503;28;20420;-78
2021/07/21 04:09:16;;;;;;;18.77;10.87;;;;;;;;;;5054262;28;20399;-78
2021/07/21 04:12:00;;;;;;;16.67;11.27;;;;;;;;;;5054150;28;20932;-78
2021/07/21 04:14:26;;;;;;;18.03;12.40;;;;;;;;;;5053931;28;20432;-77
2021/07/21 04:16:53;;;;;;;16.80;11.10;;;;;;;;;;5052985;28;20546;-77
2021/07/21 04:19:23;;;;;;;15.33;10.47;;;;;;;;;;5053933;28;20498;-78
2021/07/21 04:21:50;;;;;;;17.77;11.80;;;;;;;;;;5053925;28;20936;-77
2021/07/21 04:24:17;;;;;;;11.70;10.33;;;;;;;;;;5053706;28;20478;-77
2021/07/21 04:26:44;;;;;;;18.77;11.50;;;;;;;;;;5052928;28;20799;-77
2021/07/21 04:29:11;;;;;;;16.90;10.47;;;;;;;;;;5053962;28;20745;-77
2021/07/21 04:31:38;;;;;;;15.90;11.17;;;;;;;;;;5053838;28;20439;-77
2021/07/21 04:34:05;;;;;;;14.70;10.23;;;;;;;;;;5052325;28;20779;-77
2021/07/21 04:36:33;;;;;;;18.50;11.00;;;;;;;;;;5053887;28;21026;-77
2021/07/21 04:38:59;;;;;;;16.63;11.10;;;;;;;;;;5053841;28;20411;-77
2021/07/21 04:41:25;;;;;;;18.87;12.00;;;;;;;;;;5053738;28;20412;-79
2021/07/21 04:43:51;;;;;;;16.33;11.40;;;;;;;;;;5053270;28;20420;-79
2021/07/21 04:46:21;;;;;;;20.70;11.40;;;;;;;;;;5053661;28;20394;-77
2021/07/21 04:48:47;;;;;;;16.93;11.40;;;;;;;;;;5053321;28;20458;-77
2021/07/21 04:51:16;;;;;;;18.70;10.73;;;;;;;;;;5053782;28;20419;-76
2021/07/21 04:53:42;;;;;;;20.33;11.67;;;;;;;;;;5053178;28;20412;-77
2021/07/21 04:56:08;;;;;;;17.60;11.87;;;;;;;;;;5053254;28;20467;-77
2021/07/21 04:58:34;;;;;;;17.50;12.57;;;;;;;;;;5052198;28;20420;-77
2021/07/21 05:01:00;;;;;;;16.70;11.50;;;;;;;;;;5053222;28;20491;-77
2021/07/21 05:03:26;;;;;;;19.60;12.27;;;;;;;;;;5051938;28;20416;-77
2021/07/21 05:05:52;;;;;;;17.60;11.90;;;;;;;;;;5053222;28;20475;-77
2021/07/21 05:08:18;;;;;;;20.07;11.07;;;;;;;;;;5053299;28;20412;-77
2021/07/21 05:10:45;;;;;;;28.30;12.47;;;;;;;;;;5053353;28;20481;-77
2021/07/21 05:13:11;;;;;;;19.37;12.17;;;;;;;;;;5053209;28;20433;-77
2021/07/21 05:15:37;;;;;;;17.80;11.53;;;;;;;;;;5053181;28;20449;-77
2021/07/21 05:18:03;;;;;;;18.63;11.83;;;;;;;;;;5053225;28;20420;-77
2021/07/21 05:20:30;;;;;;;19.70;12.40;;;;;;;;;;5053433;28;20767;-78
2021/07/21 05:22:56;;;;;;;18.37;12.93;;;;;;;;;;5053060;28;20780;-77
2021/07/21 05:25:22;;;;;;;17.97;12.63;;;;;;;;;;5053189;28;20416;-77
2021/07/21 05:27:48;;;;;;;21.63;12.67;;;;;;;;;;5053124;28;20408;-77
2021/07/21 05:30:14;;;;;;;18.30;13.40;;;;;;;;;;5053065;28;20415;-77
2021/07/21 05:32:40;;;;;;;17.00;12.50;;;;;;;;;;5053042;28;20411;-77
2021/07/21 05:35:07;;;;;;;18.77;12.93;;;;;;;;;;5052836;28;20436;-77
2021/07/21 05:37:33;;;;;;;18.13;11.77;;;;;;;;;;5051477;28;20463;-77
2021/07/21 05:39:59;;;;;;;20.43;13.20;;;;;;;;;;5052838;28;20412;-77
2021/07/21 05:42:25;;;;;;;17.70;13.23;;;;;;;;;;5052955;28;20473;-77
2021/07/21 05:44:51;;;;;;;22.13;14.30;;;;;;;;;;5052580;28;21016;-77
2021/07/21 05:50:28;;;;;;;18.80;13.10;;;;;;;;;;5010892;28;20418;-77
2021/07/21 05:52:54;;;;;;;19.00;13.43;;;;;;;;;;5011005;28;20417;-77
2021/07/21 05:55:20;;;;;;;16.40;12.20;;;;;;;;;;5030472;28;20519;-77
2021/07/21 05:57:47;;;;;;;20.20;13.43;;;;;;;;;;5052805;28;20463;-77
2021/07/21 06:00:25;;;;;;;21.10;13.77;;;;;;;;;;5053555;28;20481;-77
2021/07/21 06:02:51;;;;;;;16.00;11.27;;;;;;;;;;5056560;28;20491;-77
2021/07/21 06:05:17;;;;;;;14.47;11.50;;;;;;;;;;5056761;28;20531;-77
2021/07/21 06:07:46;;;;;;;14.73;10.50;;;;;;;;;;5056613;28;20992;-77
2021/07/21 06:10:12;;;;;;;17.53;10.30;;;;;;;;;;5056637;28;20408;-77
2021/07/21 06:12:38;;;;;;;14.37;10.13;;;;;;;;;;5055738;28;21026;-78
2021/07/21 06:15:05;;;;;;;17.50;10.13;;;;;;;;;;5056163;28;20446;-78
2021/07/21 06:17:31;;;;;;;11.73;8.70;;;;;;;;;;5056440;28;20455;-78
2021/07/21 06:19:57;;;;;;;11.80;8.00;;;;;;;;;;5056468;28;20474;-77
2021/07/21 06:22:23;;;;;;;16.80;8.80;;;;;;;;;;5056677;28;20408;-77
2021/07/21 06:24:52;;;;;;;9.27;7.50;;;;;;;;;;5055845;28;20436;-77
2021/07/21 06:27:18;;;;;;;14.40;8.00;;;;;;;;;;5056453;28;20783;-77
2021/07/21 06:29:44;;;;;;;10.97;7.53;;;;;;;;;;5056563;28;20424;-77
2021/07/21 06:32:10;;;;;;;8.43;7.47;;;;;;;;;;5056264;28;20892;-77
2021/07/21 06:34:36;;;;;;;10.87;7.43;;;;;;;;;;5055741;28;20530;-77
2021/07/21 06:37:02;;;;;;;8.57;6.80;;;;;;;;;;5056070;28;20558;-77
2021/07/21 06:39:28;;;;;;;10.70;7.20;;;;;;;;;;5056268;28;20397;-78
2021/07/21 06:41:54;;;;;;;14.53;7.47;;;;;;;;;;5056105;28;20408;-77
2021/07/21 06:44:20;;;;;;;8.33;6.80;;;;;;;;;;5055648;28;20464;-77
2021/07/21 06:46:46;;;;;;;7.67;6.43;;;;;;;;;;5054304;28;20454;-79
2021/07/21 06:49:12;;;;;;;12.80;7.00;;;;;;;;;;5055718;28;20900;-77
2021/07/21 06:51:38;;;;;;;9.60;6.47;;;;;;;;;;5055727;28;20407;-77
2021/07/21 06:54:04;;;;;;;10.10;6.10;;;;;;;;;;5055309;28;20383;-77
2021/07/21 06:56:30;;;;;;;7.90;6.60;;;;;;;;;;5055606;28;20487;-78
2021/07/21 06:58:56;;;;;;;10.70;6.47;;;;;;;;;;5053775;28;20420;-79
2021/07/21 07:01:22;;;;;;;8.97;6.13;;;;;;;;;;5055566;28;20474;-77
2021/07/21 07:03:48;;;;;;;13.83;6.67;;;;;;;;;;5053979;28;20424;-77
2021/07/21 07:06:16;;;;;;;13.37;8.40;;;;;;;;;;5054010;28;20452;-77
2021/07/21 07:08:42;;;;;;;9.03;7.33;;;16.80;99.90;;;;;;5055685;28;20394;-78
2021/07/21 07:11:09;;;;;;;17.40;9.30;;;;;;;;;;5055334;28;20926;-77
2021/07/21 07:13:35;;;;;;;13.17;6.97;;;;;;;;;;5055049;28;20712;-77
2021/07/21 07:16:01;;;;;;;7.23;6.07;;;;;;;;;;5055134;28;20477;-76
2021/07/21 07:18:28;;;;;;;6.83;5.40;;;;;;;;;;5055556;28;20436;-78
2021/07/21 07:20:57;;;;;;;8.47;5.93;;;;;;;;;;5055155;28;20464;-77
2021/07/21 07:23:23;;;;;;;7.40;6.00;;;;;;;;;;5055113;28;20379;-77
2021/07/21 07:25:49;;;;;;;12.00;6.20;;;17.80;99.90;;;;;;5055138;28;20525;-76
2021/07/21 07:28:15;;;;;;;9.07;6.80;;;;;;;;;;5055133;28;20850;-77
2021/07/21 07:30:43;;;;;;;7.03;5.80;;;;;;;;;;5055326;28;20182;-76
2021/07/21 07:33:11;;;;;;;6.40;5.23;;;17.90;99.90;;;;;;5054596;28;20479;-79
2021/07/21 07:35:40;;;;;;;6.97;5.70;;;;;;;;;;5053646;28;20534;-77
2021/07/21 07:38:11;;;;;;;10.97;5.20;;;;;;;;;;5054820;28;20955;-77
2021/07/21 07:40:37;;;;;;;7.30;4.60;;;;;;;;;;5054888;28;20404;-77
2021/07/21 07:43:05;;;;;;;6.60;5.00;;;;;;;;;;5054417;28;20543;-77
2021/07/21 07:45:31;;;;;;;5.80;4.80;;;;;;;;;;5053557;28;20527;-77
2021/07/21 07:47:57;;;;;;;5.27;4.77;;;;;;;;;;5054772;28;20455;-77
2021/07/21 07:50:36;;;;;;;5.63;4.83;;;;;;;;;;5054653;28;20482;-77
2021/07/21 07:53:02;;;;;;;5.33;4.40;;;;;;;;;;5014837;28;20428;-77
2021/07/21 07:55:29;;;;;;;7.00;4.47;;;;;;;;;;5032374;28;20415;-77
2021/07/21 07:57:55;;;;;;;5.60;4.13;;;;;;;;;;5032402;28;20571;-77
2021/07/21 08:00:21;;;;;;;5.50;4.33;;;;;;;;;;5032492;28;20504;-77
2021/07/21 08:02:48;;;;;;;8.83;3.70;;;;;;;;;;5031988;28;20448;-78
2021/07/21 08:05:14;;;;;;;8.07;4.07;;;;;;;;;;5015418;28;20457;-78
2021/07/21 08:07:40;;;;;;;7.43;4.07;;;;;;;;;;5032247;28;20806;-77
2021/07/21 08:10:10;;;;;;;10.63;3.97;;;;;;;;;;5015952;28;20423;-78
2021/07/21 08:12:51;;;;;;;5.80;3.97;;;;;;;;;;5015490;28;20504;-78
2021/07/21 08:15:17;;;;;;;8.77;4.40;;;;;;;;;;5015595;28;20518;-78
2021/07/21 08:17:43;;;;;;;7.10;3.50;;;;;;;;;;5032125;28;20920;-77
2021/07/21 08:20:10;;;;;;;6.63;3.37;;;;;;;;;;5015571;28;20409;-78
2021/07/21 08:22:40;;;;;;;5.07;3.50;;;;;;;;;;5015218;28;20421;-77
2021/07/21 08:25:10;;;;;;;5.00;3.73;;;;;;;;;;5052733;28;20466;-77
2021/07/21 08:27:36;;;;;;;5.90;3.70;;;;;;;;;;5053859;28;20412;-78
2021/07/21 08:30:04;;;;;;;6.33;3.70;;;;;;;;;;5053998;28;20415;-78
2021/07/21 08:32:29;;;;;;;4.40;3.30;;;;;;;;;;5052576;28;20424;-77
2021/07/21 08:34:55;;;;;;;5.77;3.60;;;;;;;;;;5053386;28;20485;-78
2021/07/21 08:37:21;;;;;;;5.27;3.23;;;;;;;;;;5053510;28;20960;-78
2021/07/21 08:39:51;;;;;;;4.10;3.70;;;;;;;;;;5053662;28;20408;-78
2021/07/21 08:42:17;;;;;;;4.80;3.50;;;;;;;;;;5036004;28;20849;-78
2021/07/21 08:44:43;;;;;;;5.30;3.80;;;;;;;;;;5053321;28;20434;-78
2021/07/21 08:47:09;;;;;;;7.97;4.20;;;;;;;;;;5053618;28;20444;-78
2021/07/21 08:49:36;;;;;;;3.87;3.50;;;;;;;;;;5036031;28;20416;-78
2021/07/21 08:52:03;;;;;;;5.20;3.37;;;;;;;;;;5053445;28;20454;-78
2021/07/21 08:54:29;;;;;;;5.60;3.50;;;;;;;;;;5052944;28;20493;-78
2021/07/21 08:57:19;;;;;;;4.00;3.60;;;;;;;;;;5052125;28;20506;-79
2021/07/21 08:59:46;;;;;;;5.53;3.60;;;;;;;;;;5051846;28;20511;-78
2021/07/21 09:02:14;;;;;;;6.43;4.17;;;;;;;;;;5052038;28;21055;-79
2021/07/21 09:04:40;;;;;;;5.83;3.80;;;;;;;;;;5051576;28;20463;-78
2021/07/21 09:07:07;;;;;;;5.83;3.77;;;;;;;;;;5053398;28;20490;-78
2021/07/21 09:09:33;;;;;;;4.23;3.63;;;;;;;;;;5053203;28;20462;-78
2021/07/21 09:11:59;;;;;;;4.70;3.43;;;;;;;;;;5052961;28;20404;-78
2021/07/21 09:14:26;;;;;;;4.53;3.80;;;;;;;;;;5051463;28;20527;-78
2021/07/21 09:17:10;;;;;;;5.50;3.70;;;;;;;;;;5053021;28;20459;-78
2021/07/21 09:19:38;;;;;;;4.87;3.73;;;;;;;;;;5051699;28;20426;-78
2021/07/21 09:22:28;;;;;;;9.40;4.70;;;;;;;;;;5053049;28;20812;-78
2021/07/21 09:25:13;;;;;;;3.70;3.20;;;;;;;;;;5045059;28;20507;-78
2021/07/21 09:27:42;;;;;;;4.93;3.60;;;;;;;;;;5052947;28;20431;-79
2021/07/21 09:30:09;;;;;;;3.20;2.87;;;;;;;;;;5052944;28;20412;-79
2021/07/21 09:32:53;;;;;;;7.87;4.03;;;;;;;;;;5053069;28;20947;-79
2021/07/21 09:35:20;;;;;;;4.23;3.73;;;;;;;;;;5054073;28;20463;-79
2021/07/21 09:37:47;;;;;;;5.97;4.10;;;;;;;;;;5056909;28;20478;-79
2021/07/21 09:40:14;;;;;;;5.60;4.17;;;;;;;;;;5057036;28;20861;-79
2021/07/21 09:42:40;;;;;;;5.40;3.70;;;;;;;;;;5056957;28;20405;-79
2021/07/21 09:45:09;;;;;;;5.93;3.37;;;;;;;;;;5055418;28;20443;-79
2021/07/21 09:47:39;;;;;;;6.60;3.73;;;;;;;;;;5056929;28;20926;-79
2021/07/21 09:50:35;;;;;;;5.57;3.50;;;;;;;;;;5056956;28;20916;-80
2021/07/21 09:53:04;;;;;;;5.97;4.00;;;;;;;;;;5055735;28;20454;-79
2021/07/21 09:55:30;;;;;;;4.40;3.60;;;;;;;;;;5056617;28;20432;-78
2021/07/21 09:58:01;;;;;;;6.97;4.20;;;;;;;;;;5056681;28;20966;-77
2021/07/21 10:00:28;;;;;;;6.13;4.40;;;;;;;;;;5056594;28;20457;-77
2021/07/21 10:03:12;;;;;;;4.87;3.63;;;;;;;;;;5056530;28;20426;-77
2021/07/21 10:05:57;;;;;;;6.93;4.80;;;;;;;;;;5056404;28;20538;-79
2021/07/21 10:08:34;;;;;;;4.70;4.10;;;;;;;;;;5056348;28;20899;-78
2021/07/21 10:11:18;;;;;;;4.97;4.47;;;;;;;;;;5054625;28;20455;-79
2021/07/21 10:13:44;;;;;;;6.73;4.23;;;;;;;;;;5056176;28;20419;-78
2021/07/21 10:16:10;;;;;;;5.30;4.00;;;;;;;;;;5056555;28;20452;-79
2021/07/21 10:18:36;;;;;;;4.63;3.40;;;;;;;;;;5056385;28;20458;-78
2021/07/21 10:21:02;;;;;;;4.63;3.83;;;;;;;;;;5056356;28;20419;-79
2021/07/21 10:23:28;;;;;;;6.07;4.20;;;;;;;;;;5054914;28;20407;-79
2021/07/21 10:25:55;;;;;;;5.10;4.03;;;;;;;;;;5056208;28;20436;-79
2021/07/21 10:28:21;;;;;;;6.10;3.60;;;;;;;;;;5056263;28;20416;-79
2021/07/21 10:30:47;;;;;;;4.53;4.10;;;;;;;;;;5056179;28;20416;-79
2021/07/21 10:33:13;;;;;;;4.80;3.80;;;;;;;;;;5054815;28;20474;-79
2021/07/21 10:35:39;;;;;;;6.87;4.50;;;;;;;;;;5054630;28;20936;-78
2021/07/21 10:38:07;;;;;;;4.40;4.00;;;;;;;;;;5056184;28;20451;-78
2021/07/21 10:40:35;;;;;;;5.77;3.70;;;;;;;;;;5056088;28;20751;-78
2021/07/21 10:43:02;;;;;;;7.27;3.90;;;;;;;;;;5054756;28;20427;-78
2021/07/21 10:45:34;;;;;;;4.43;4.00;;;;;;;;;;5037773;28;20971;-78
2021/07/21 10:48:07;;;;;;;3.97;3.67;;;;;;;;;;5055703;28;20427;-78
2021/07/21 10:51:17;;;;;;;4.80;3.90;;;;;;;;;;5055704;28;20403;-78
2021/07/21 10:59:11;;;;;;;4.63;4.00;;;;;;;;;;5055655;28;20813;-77
2021/07/21 11:01:39;;;;;;;4.73;4.30;;;;;;;;;;5055596;28;20388;-77
2021/07/21 11:04:05;;;;;;;4.47;4.07;;;;;;;;;;5054980;28;20915;-78
2021/07/21 11:06:37;;;;;;;7.93;4.27;;;;;;;;;;5055460;28;20491;-77
2021/07/21 11:09:23;;;;;;;4.73;4.00;;;;;;;;;;5054009;28;20408;-78
2021/07/21 11:11:59;;;;;;;6.40;4.90;;;;;;;;;;5054154;28;20511;-78
2021/07/21 11:14:27;;;;;;;5.47;4.90;;;;;;;;;;5053944;28;20448;-77
2021/07/21 11:17:08;;;;;;;6.40;4.70;;;;;;;;;;5055160;28;20820;-77
2021/07/21 11:19:35;;;;;;;5.20;4.70;;;;;;;;;;5055172;28;20400;-78
2021/07/21 11:22:02;;;;;;;4.93;4.43;;;;;;;;;;5055550;28;20400;-78
2021/07/21 11:24:29;;;;;;;6.10;4.60;;;;;;;;;;5053716;28;20444;-78
2021/07/21 11:26:55;;;;;;;5.93;4.37;;;;;;;;;;5054999;28;20424;-78
2021/07/21 11:29:25;;;;;;;7.50;4.73;;;;;;;;;;5055521;28;20412;-77
2021/07/21 11:31:51;;;;;;;6.53;4.90;;;;;;;;;;5054174;28;20470;-77
2021/07/21 11:34:30;;;;;;;4.70;4.30;;;;;;;;;;5053411;28;20851;-78
2021/07/21 11:36:57;;;;;;;5.47;4.70;;;;;;;;;;5054957;28;20605;-78
2021/07/21 11:39:44;;;;;;;7.93;5.00;;;;;;;;;;5054874;28;20416;-77
2021/07/21 11:42:26;;;;;;;5.80;4.30;;;;;;;;;;5055023;28;20419;-77
2021/07/21 11:45:03;;;;;;;5.07;4.57;;;;;;;;;;5054538;28;20948;-77
2021/07/21 11:47:30;;;;;;;6.90;4.60;;;;;;;;;;5054926;28;20877;-77
2021/07/21 11:49:56;;;;;;;5.87;5.27;;;;;;;;;;5054682;28;20420;-77
2021/07/21 11:52:23;;;;;;;9.00;5.23;;;;;;;;;;5054807;28;20877;-77
2021/07/21 11:54:49;;;;;;;6.27;5.23;;;;;;;;;;5053055;28;20444;-77
2021/07/21 11:57:15;;;;;;;5.83;5.23;;;;;;;;;;5036280;28;20476;-77
2021/07/21 11:59:43;;;;;;;9.63;5.10;;;;;;;;;;5054015;28;20404;-78
2021/07/21 12:02:09;;;;;;;6.80;5.33;;;;;;;;;;5054489;28;20463;-77
2021/07/21 12:04:36;;;;;;;6.23;4.90;;;;;;;;;;5053876;28;20448;-77
2021/07/21 12:07:02;;;;;;;5.60;5.10;;;;;;;;;;5053121;28;20424;-78
2021/07/21 12:09:29;;;;;;;5.00;4.60;;;;;;;;;;5054151;28;20423;-78
2021/07/21 12:11:59;;;;;;;5.50;5.00;;;;;;;;;;5054214;28;20927;-78
2021/07/21 12:14:26;;;;;;;5.03;4.53;;;;;;;;;;5053836;28;20512;-78
2021/07/21 12:16:52;;;;;;;6.00;4.73;;;;;;;;;;5054052;28;20464;-78
2021/07/21 12:19:25;;;;;;;6.03;5.43;;;;;;;;;;5054290;28;20436;-77
2021/07/21 12:22:02;;;;;;;5.93;5.43;;;;;;;;;;5053092;28;20412;-77
2021/07/21 12:24:33;;;;;;;9.87;6.23;;;;;;;;;;5053988;28;20423;-78
2021/07/21 12:26:59;;;;;;;5.47;4.97;;;;;;;;;;5054018;28;20407;-78
2021/07/21 12:29:26;;;;;;;6.93;5.30;;;;;;;;;;5053847;28;20420;-78
2021/07/21 12:32:11;;;;;;;5.90;5.30;;;;;;;;;;5052796;28;20509;-78
2021/07/21 12:34:38;;;;;;;5.73;5.07;;;;;;;;;;5052129;28;20432;-78
2021/07/21 12:37:06;;;;;;;5.90;5.30;;;;;;;;;;5053767;28;20889;-78
2021/07/21 12:39:32;;;;;;;6.53;5.93;;;;;;;;;;5052405;28;20419;-78
2021/07/21 12:42:09;;;;;;;7.23;5.83;;;;;;;;;;5053914;28;21039;-78
2021/07/21 12:44:43;;;;;;;6.53;5.67;;;;;;;;;;5053199;28;20434;-77
2021/07/21 12:47:13;;;;;;;6.90;5.77;;;;;;;;;;5053605;28;20427;-78
2021/07/21 12:49:40;;;;;;;8.03;6.60;;;;;;;;;;5053560;28;20554;-78
2021/07/21 12:52:07;;;;;;;8.37;6.07;;;;;;;;;;5053735;28;20795;-78
2021/07/21 12:54:34;;;;;;;8.00;6.10;;;;;;;;;;5051908;28;20789;-77
2021/07/21 12:57:00;;;;;;;7.47;6.33;;;;;;;;;;5053440;28;20466;-78
2021/07/21 12:59:39;;;;;;;6.93;6.23;;;;;;;;;;5052204;28;20404;-78
2021/07/21 13:02:09;;;;;;;6.83;6.13;;;;;;;;;;5052115;28;20465;-77
2021/07/21 13:04:35;;;;;;;6.77;5.80;;;;;;;;;;5051423;28;20601;-79
2021/07/21 13:07:02;;;;;;;6.70;5.80;;;;;;;;;;5051886;28;20443;-78
2021/07/21 13:09:28;;;;;;;7.33;6.63;;;;;;;;;;5053018;28;20458;-78
2021/07/21 13:11:54;;;;;;;8.50;6.50;;;;;;;;;;5053007;28;20411;-78
2021/07/21 13:14:20;;;;;;;11.03;6.70;;;;;;;;;;5052804;28;21002;-78
2021/07/21 13:16:46;;;;;;;7.40;6.70;;;;;;;;;;5052078;28;20467;-78
2021/07/21 13:19:16;;;;;;;6.97;6.10;;;;;;;;;;5053288;28;20900;-78
2021/07/21 13:21:50;;;;;;;7.03;6.43;;;;;;;;;;5051744;28;20416;-77
2021/07/21 13:24:23;;;;;;;7.57;6.83;;;;;;;;;;5052826;28;20434;-77
2021/07/21 13:26:54;;;;;;;6.73;6.13;;;;;;;;;;5053135;28;20407;-77
2021/07/21 13:29:20;;;;;;;9.13;6.60;;;;;;;;;;5053068;28;20458;-78
2021/07/21 13:31:47;;;;;;;8.10;6.80;;;;;;;;;;5051703;28;20451;-77
2021/07/21 13:34:21;;;;;;;8.00;7.30;;;;;;;;;;5051229;28;20427;-78
2021/07/21 13:36:47;;;;;;;8.03;7.30;;;;;;;;;;5052854;28;21050;-78
2021/07/21 13:39:14;;;;;;;8.20;7.47;;;;;;;;;;5053085;28;20415;-78
2021/07/21 13:42:00;;;;;;;7.93;7.13;;;;;;;;;;5051763;28;20431;-78
2021/07/21 13:44:27;;;;;;;8.73;6.77;;;;;;;;;;5052781;28;20526;-78
2021/07/21 13:46:55;;;;;;;10.57;7.57;;;;;;;;;;5051858;28;20436;-79
2021/07/21 13:49:28;;;;;;;10.63;6.90;;;;;;;;;;5051685;28;20412;-78
2021/07/21 13:52:04;;;;;;;7.93;7.13;;;;;;;;;;5052795;28;20404;-79
2021/07/21 13:54:32;;;;;;;7.73;7.00;;;;;;;;;;5051289;28;20794;-79
2021/07/21 13:57:02;;;;;;;8.97;7.20;;;;;;;;;;5052885;28;20463;-79
2021/07/21 13:59:28;;;;;;;10.17;7.70;;;;;;;;;;5052824;28;20864;-78
2021/07/21 14:01:56;;;;;;;8.30;7.20;;;;;;;;;;5052574;28;20427;-78
2021/07/21 14:04:23;;;;;;;8.33;6.90;;;;;;;;;;5050806;28;20448;-79
2021/07/21 14:06:50;;;;;;;8.97;7.60;;;;;;;;;;5051504;28;20470;-78
2021/07/21 14:09:16;;;;;;;7.77;6.83;;;;;;;;;;5051429;28;20908;-78
2021/07/21 14:11:43;;;;;;;8.13;7.33;;;;;;;;;;5052681;28;20404;-77
2021/07/21 14:14:09;;;;;;;7.57;6.83;;;;;;;;;;5050869;28;20520;-78
2021/07/21 14:16:36;;;;;;;9.83;7.90;;;;;;;;;;5051326;28;20466;-79
2021/07/21 14:19:02;;;;;;;9.33;7.50;;;;;;;;;;5052603;28;20936;-79
2021/07/21 14:21:28;;;;;;;9.27;7.80;;;;;;;;;;5052637;28;20754;-79
2021/07/21 14:23:57;;;;;;;7.77;7.07;;;;;;;;;;5054518;28;20408;-78
2021/07/21 14:26:24;;;;;;;8.20;7.40;;;;;;;;;;5039053;28;20944;-78
2021/07/21 14:28:50;;;;;;;12.87;7.80;;;;;;;;;;5056429;28;20403;-78
2021/07/21 14:31:16;;;;;;;7.93;7.10;;;;;;;;;;5055018;28;20416;-79
2021/07/21 14:33:42;;;;;;;8.30;7.33;;;;;;;;;;5055980;28;20760;-78
2021/07/21 14:36:08;;;;;;;10.40;8.07;;;;;;;;;;5038404;28;20948;-79
2021/07/21 14:38:34;;;;;;;7.67;6.97;;;;;;;;;;5055977;28;20428;-78
2021/07/21 14:41:01;;;;;;;8.87;7.30;;;;;;;;;;5055921;28;20473;-78
2021/07/21 14:43:27;;;;;;;8.27;7.40;;;;;;;;;;5055547;28;20509;-78
2021/07/21 14:45:53;;;;;;;9.73;7.37;;;;;;;;;;5056025;28;20757;-79
2021/07/21 14:48:19;;;;;;;9.80;7.83;;;;;;;;;;5055867;28;20408;-80
2021/07/21 14:50:45;;;;;;;9.20;8.00;;;;;;;;;;5055754;28;20872;-78
2021/07/21 14:53:11;;;;;;;8.17;7.37;;;;;;;;;;5055404;28;20404;-78